sensor_id;sensor_type;location;lat;lon;timestamp;pressure;altitude;pressure_sealevel;temperature;humidity
15750;BME280;7976;52.526;13.326;2023-12-14T00:01:12;100139.88;;;5.26;100.00
15750;BME280;7976;52.526;13.326;2023-12-14T00:03:39;100138.19;;;5.25;100.00
15750;BME280;7976;52.526;13.326;2023-12-14T00:06:08;100142.53;;;5.25;100.00
15750;BME280;7976;52.526;13.326;2023-12-14T00:08:35;100137.50;;;5.19;100.00
15750;BME280;7976;52.526;13.326;2023-12-14T00:11:04;100150.34;;;5.23;100.00
15750;BME280;7976;52.526;13.326;2023-12-14T00:13:31;100160.72;;;5.23;100.00
15750;BME280;7976;52.526;13.326;2023-12-14T00:15:58;100160.72;;;5.23;100.00
15750;BME280;7976;52.526;13.326;2023-12-14T00:18:25;100166.78;;;5.24;100.00
15750;BME280;7976;52.526;13.326;2023-12-14T00:20:52;100165.88;;;5.25;100.00
15750;BME280;7976;52.526;13.326;2023-12-14T00:23:21;100165.94;;;5.22;100.00
15750;BME280;7976;52.526;13.326;2023-12-14T00:25:48;100173.69;;;5.23;100.00
15750;BME280;7976;52.526;13.326;2023-12-14T00:28:15;100173.69;;;5.23;100.00
15750;BME280;7976;52.526;13.326;2023-12-14T00:30:42;100179.88;;;5.18;100.00
15750;BME280;7976;52.526;13.326;2023-12-14T00:33:09;100186.03;;;5.13;100.00
15750;BME280;7976;52.526;13.326;2023-12-14T00:35:36;100192.16;;;5.09;100.00
15750;BME280;7976;52.526;13.326;2023-12-14T00:38:02;100194.69;;;5.12;100.00
15750;BME280;7976;52.526;13.326;2023-12-14T00:40:31;100201.50;;;5.17;100.00
15750;BME280;7976;52.526;13.326;2023-12-14T00:42:58;100198.88;;;5.18;100.00
15750;BME280;7976;52.526;13.326;2023-12-14T00:45:25;100200.78;;;5.11;100.00
15750;BME280;7976;52.526;13.326;2023-12-14T00:47:52;100203.41;;;5.10;100.00
15750;BME280;7976;52.526;13.326;2023-12-14T00:50:19;100205.13;;;5.09;100.00
15750;BME280;7976;52.526;13.326;2023-12-14T00:52:45;100209.44;;;5.10;100.00
15750;BME280;7976;52.526;13.326;2023-12-14T00:55:12;100212.13;;;5.06;100.00
15750;BME280;7976;52.526;13.326;2023-12-14T00:57:41;100212.31;;;4.98;100.00
15750;BME280;7976;52.526;13.326;2023-12-14T01:00:09;100227.97;;;4.94;100.00
15750;BME280;7976;52.526;13.326;2023-12-14T01:02:37;100227.09;;;4.95;100.00
15750;BME280;7976;52.526;13.326;2023-12-14T01:05:05;100234.97;;;4.90;100.00
15750;BME280;7976;52.526;13.326;2023-12-14T01:07:32;100242.81;;;4.87;100.00
15750;BME280;7976;52.526;13.326;2023-12-14T01:09:58;100247.13;;;4.88;100.00
15750;BME280;7976;52.526;13.326;2023-12-14T01:12:25;100248.06;;;4.84;100.00
15750;BME280;7976;52.526;13.326;2023-12-14T01:14:53;100251.59;;;4.82;100.00
15750;BME280;7976;52.526;13.326;2023-12-14T01:17:20;100259.44;;;4.77;100.00
15750;BME280;7976;52.526;13.326;2023-12-14T01:19:47;100256.88;;;4.76;100.00
15750;BME280;7976;52.526;13.326;2023-12-14T01:22:14;100265.47;;;4.78;100.00
15750;BME280;7976;52.526;13.326;2023-12-14T01:24:41;100260.31;;;4.78;100.00
15750;BME280;7976;52.526;13.326;2023-12-14T01:27:08;100267.28;;;4.74;100.00
15750;BME280;7976;52.526;13.326;2023-12-14T01:29:35;100262.13;;;4.73;100.00
15750;BME280;7976;52.526;13.326;2023-12-14T01:32:05;100276.00;;;4.72;100.00
15750;BME280;7976;52.526;13.326;2023-12-14T01:34:32;100275.13;;;4.71;100.00
15750;BME280;7976;52.526;13.326;2023-12-14T01:36:58;100284.56;;;4.74;100.00
15750;BME280;7976;52.526;13.326;2023-12-14T01:39:25;100289.75;;;4.74;100.00
15750;BME280;7976;52.526;13.326;2023-12-14T01:41:52;100291.56;;;4.70;100.00
15750;BME280;7976;52.526;13.326;2023-12-14T01:44:19;100296.00;;;4.65;100.00
15750;BME280;7976;52.526;13.326;2023-12-14T01:46:45;100299.59;;;4.58;100.00
15750;BME280;7976;52.526;13.326;2023-12-14T01:49:14;100304.84;;;4.55;100.00
15750;BME280;7976;52.526;13.326;2023-12-14T01:51:40;100297.81;;;4.60;100.00
15750;BME280;7976;52.526;13.326;2023-12-14T01:54:08;100308.13;;;4.63;100.00
15750;BME280;7976;52.526;13.326;2023-12-14T01:56:35;100308.16;;;4.62;100.00
15750;BME280;7976;52.526;13.326;2023-12-14T01:59:02;100312.50;;;4.60;100.00
15750;BME280;7976;52.526;13.326;2023-12-14T02:01:36;100307.31;;;4.60;100.00
15750;BME280;7976;52.526;13.326;2023-12-14T02:04:05;100316.00;;;4.57;100.00
15750;BME280;7976;52.526;13.326;2023-12-14T02:06:34;100319.38;;;4.61;100.00
15750;BME280;7976;52.526;13.326;2023-12-14T02:09:01;100315.97;;;4.59;100.00
15750;BME280;7976;52.526;13.326;2023-12-14T02:11:28;100321.16;;;4.60;100.00
15750;BME280;7976;52.526;13.326;2023-12-14T02:13:55;100321.94;;;4.62;100.00
15750;BME280;7976;52.526;13.326;2023-12-14T02:16:22;100315.19;;;4.55;100.00
15750;BME280;7976;52.526;13.326;2023-12-14T02:18:49;100321.25;;;4.54;100.00
15750;BME280;7976;52.526;13.326;2023-12-14T02:21:16;100321.22;;;4.56;100.00
15750;BME280;7976;52.526;13.326;2023-12-14T02:23:45;100322.06;;;4.56;100.00
15750;BME280;7976;52.526;13.326;2023-12-14T02:26:13;100325.56;;;4.55;100.00
15750;BME280;7976;52.526;13.326;2023-12-14T02:28:40;100329.88;;;4.55;100.00
15750;BME280;7976;52.526;13.326;2023-12-14T02:31:07;100333.38;;;4.52;100.00
15750;BME280;7976;52.526;13.326;2023-12-14T02:33:34;100335.09;;;4.53;100.00
15750;BME280;7976;52.526;13.326;2023-12-14T02:36:00;100329.00;;;4.54;100.00
15750;BME280;7976;52.526;13.326;2023-12-14T02:38:29;100335.03;;;4.56;100.00
15750;BME280;7976;52.526;13.326;2023-12-14T02:40:57;100337.63;;;4.56;100.00
15750;BME280;7976;52.526;13.326;2023-12-14T02:43:24;100346.31;;;4.52;100.00
15750;BME280;7976;52.526;13.326;2023-12-14T02:45:51;100340.34;;;4.50;100.00
15750;BME280;7976;52.526;13.326;2023-12-14T02:48:18;100344.56;;;4.54;100.00
15750;BME280;7976;52.526;13.326;2023-12-14T02:50:44;100341.97;;;4.54;100.00
15750;BME280;7976;52.526;13.326;2023-12-14T02:53:11;100342.88;;;4.53;100.00
15750;BME280;7976;52.526;13.326;2023-12-14T02:55:38;100346.31;;;4.52;100.00
15750;BME280;7976;52.526;13.326;2023-12-14T02:58:06;100348.91;;;4.52;100.00
15750;BME280;7976;52.526;13.326;2023-12-14T03:00:33;100348.88;;;4.54;100.00
15750;BME280;7976;52.526;13.326;2023-12-14T03:03:00;100358.41;;;4.53;100.00
15750;BME280;7976;52.526;13.326;2023-12-14T03:05:26;100357.53;;;4.53;100.00
15750;BME280;7976;52.526;13.326;2023-12-14T03:07:53;100367.00;;;4.54;100.00
15750;BME280;7976;52.526;13.326;2023-12-14T03:10:20;100368.75;;;4.53;100.00
15750;BME280;7976;52.526;13.326;2023-12-14T03:12:47;100368.75;;;4.53;100.00
15750;BME280;7976;52.526;13.326;2023-12-14T03:15:18;100375.69;;;4.51;100.00
15750;BME280;7976;52.526;13.326;2023-12-14T03:17:45;100378.25;;;4.53;100.00
15750;BME280;7976;52.526;13.326;2023-12-14T03:20:12;100388.66;;;4.51;100.00
15750;BME280;7976;52.526;13.326;2023-12-14T03:22:40;100380.88;;;4.51;100.00
15750;BME280;7976;52.526;13.326;2023-12-14T03:25:08;100386.06;;;4.51;100.00
15750;BME280;7976;52.526;13.326;2023-12-14T03:27:35;100387.88;;;4.46;100.00
15750;BME280;7976;52.526;13.326;2023-12-14T03:30:03;100390.59;;;4.40;100.00
15750;BME280;7976;52.526;13.326;2023-12-14T03:32:34;100394.03;;;4.41;100.00
15750;BME280;7976;52.526;13.326;2023-12-14T03:35:01;100398.25;;;4.46;100.00
15750;BME280;7976;52.526;13.326;2023-12-14T03:37:28;100396.50;;;4.48;100.00
15750;BME280;7976;52.526;13.326;2023-12-14T03:39:55;100409.38;;;4.51;100.00
15750;BME280;7976;52.526;13.326;2023-12-14T03:42:22;100410.28;;;4.49;100.00
15750;BME280;7976;52.526;13.326;2023-12-14T03:44:49;100410.31;;;4.47;100.00
15750;BME280;7976;52.526;13.326;2023-12-14T03:47:16;100406.91;;;4.44;100.00
15750;BME280;7976;52.526;13.326;2023-12-14T03:49:44;100413.91;;;4.40;100.00
15750;BME280;7976;52.526;13.326;2023-12-14T03:52:11;100418.28;;;4.37;100.00
15750;BME280;7976;52.526;13.326;2023-12-14T03:54:38;100422.56;;;4.38;100.00
15750;BME280;7976;52.526;13.326;2023-12-14T03:57:05;100431.13;;;4.41;100.00
15750;BME280;7976;52.526;13.326;2023-12-14T03:59:32;100443.16;;;4.45;100.00
15750;BME280;7976;52.526;13.326;2023-12-14T04:01:59;100439.63;;;4.49;100.00
15750;BME280;7976;52.526;13.326;2023-12-14T04:04:26;100443.91;;;4.52;100.00
15750;BME280;7976;52.526;13.326;2023-12-14T04:06:54;100446.53;;;4.50;100.00
15750;BME280;7976;52.526;13.326;2023-12-14T04:09:21;100446.56;;;4.47;100.00
15750;BME280;7976;52.526;13.326;2023-12-14T04:11:48;100452.63;;;4.46;100.00
15750;BME280;7976;52.526;13.326;2023-12-14T04:14:15;100450.03;;;4.46;100.00
15750;BME280;7976;52.526;13.326;2023-12-14T04:16:42;100457.84;;;4.45;100.00
15750;BME280;7976;52.526;13.326;2023-12-14T04:19:09;100459.59;;;4.43;100.00
15750;BME280;7976;52.526;13.326;2023-12-14T04:21:36;100464.75;;;4.44;100.00
15750;BME280;7976;52.526;13.326;2023-12-14T04:24:05;100472.53;;;4.44;100.00
15750;BME280;7976;52.526;13.326;2023-12-14T04:26:32;100463.97;;;4.39;100.00
15750;BME280;7976;52.526;13.326;2023-12-14T04:28:59;100469.16;;;4.39;100.00
15750;BME280;7976;52.526;13.326;2023-12-14T04:31:26;100469.97;;;4.43;100.00
15750;BME280;7976;52.526;13.326;2023-12-14T04:33:53;100471.66;;;4.44;100.00
15750;BME280;7976;52.526;13.326;2023-12-14T04:36:20;100477.63;;;4.49;100.00
15750;BME280;7976;52.526;13.326;2023-12-14T04:38:47;100483.66;;;4.49;100.00
15750;BME280;7976;52.526;13.326;2023-12-14T04:41:15;100482.81;;;4.47;100.00
15750;BME280;7976;52.526;13.326;2023-12-14T04:43:42;100479.44;;;4.45;100.00
15750;BME280;7976;52.526;13.326;2023-12-14T04:46:09;100476.81;;;4.47;100.00
15750;BME280;7976;52.526;13.326;2023-12-14T04:48:36;100484.56;;;4.48;100.00
15750;BME280;7976;52.526;13.326;2023-12-14T04:51:04;100487.94;;;4.52;100.00
15750;BME280;7976;52.526;13.326;2023-12-14T04:53:31;100489.69;;;4.51;100.00
15750;BME280;7976;52.526;13.326;2023-12-14T04:55:58;100484.56;;;4.48;100.00
15750;BME280;7976;52.526;13.326;2023-12-14T04:58:27;100505.28;;;4.48;100.00
15750;BME280;7976;52.526;13.326;2023-12-14T05:00:53;100504.34;;;4.51;100.00
15750;BME280;7976;52.526;13.326;2023-12-14T05:03:20;100519.03;;;4.52;100.00
15750;BME280;7976;52.526;13.326;2023-12-14T05:05:47;100513.00;;;4.50;100.00
15750;BME280;7976;52.526;13.326;2023-12-14T05:08:14;100513.88;;;4.50;100.00
15750;BME280;7976;52.526;13.326;2023-12-14T05:10:41;100515.56;;;4.51;100.00
15750;BME280;7976;52.526;13.326;2023-12-14T05:13:08;100525.84;;;4.56;100.00
15750;BME280;7976;52.526;13.326;2023-12-14T05:15:36;100528.41;;;4.57;100.00
15750;BME280;7976;52.526;13.326;2023-12-14T05:18:03;100528.56;;;4.50;100.00
15750;BME280;7976;52.526;13.326;2023-12-14T05:20:30;100534.59;;;4.50;100.00
15750;BME280;7976;52.526;13.326;2023-12-14T05:22:57;100538.06;;;4.49;100.00
15750;BME280;7976;52.526;13.326;2023-12-14T05:25:25;100552.72;;;4.49;100.00
15750;BME280;7976;52.526;13.326;2023-12-14T05:27:52;100551.06;;;4.46;100.00
15750;BME280;7976;52.526;13.326;2023-12-14T05:30:19;100570.06;;;4.47;100.00
15750;BME280;7976;52.526;13.326;2023-12-14T05:32:47;100567.38;;;4.51;100.00
15750;BME280;7976;52.526;13.326;2023-12-14T05:35:14;100567.38;;;4.51;100.00
15750;BME280;7976;52.526;13.326;2023-12-14T05:37:41;100566.50;;;4.52;100.00
15750;BME280;7976;52.526;13.326;2023-12-14T05:40:10;100570.78;;;4.55;100.00
15750;BME280;7976;52.526;13.326;2023-12-14T05:42:37;100583.69;;;4.58;100.00
15750;BME280;7976;52.526;13.326;2023-12-14T05:45:05;100584.56;;;4.58;100.00
15750;BME280;7976;52.526;13.326;2023-12-14T05:47:32;100587.97;;;4.60;100.00
15750;BME280;7976;52.526;13.326;2023-12-14T05:50:01;100594.00;;;4.61;100.00
15750;BME280;7976;52.526;13.326;2023-12-14T05:52:29;100582.75;;;4.63;100.00
15750;BME280;7976;52.526;13.326;2023-12-14T05:54:57;100600.09;;;4.58;100.00
15750;BME280;7976;52.526;13.326;2023-12-14T05:57:23;100603.53;;;4.57;100.00
15750;BME280;7976;52.526;13.326;2023-12-14T05:59:51;100613.94;;;4.56;100.00
15750;BME280;7976;52.526;13.326;2023-12-14T06:02:17;100617.44;;;4.53;100.00
15750;BME280;7976;52.526;13.326;2023-12-14T06:04:45;100608.81;;;4.53;100.00
15750;BME280;7976;52.526;13.326;2023-12-14T06:07:15;100610.50;;;4.54;100.00
15750;BME280;7976;52.526;13.326;2023-12-14T06:09:42;100620.03;;;4.53;100.00
15750;BME280;7976;52.526;13.326;2023-12-14T06:12:09;100626.03;;;4.54;100.00
15750;BME280;7976;52.526;13.326;2023-12-14T06:14:36;100622.63;;;4.53;100.00
15750;BME280;7976;52.526;13.326;2023-12-14T06:17:03;100632.06;;;4.56;100.00
15750;BME280;7976;52.526;13.326;2023-12-14T06:19:30;100638.09;;;4.58;100.00
15750;BME280;7976;52.526;13.326;2023-12-14T06:21:58;100635.50;;;4.58;100.00
15750;BME280;7976;52.526;13.326;2023-12-14T06:24:26;100640.69;;;4.58;100.00
15750;BME280;7976;52.526;13.326;2023-12-14T06:26:53;100639.78;;;4.60;100.00
15750;BME280;7976;52.526;13.326;2023-12-14T06:29:19;100638.84;;;4.64;100.00
15750;BME280;7976;52.526;13.326;2023-12-14T06:31:47;100638.81;;;4.66;100.00
15750;BME280;7976;52.526;13.326;2023-12-14T06:34:14;100644.88;;;4.66;100.00
15750;BME280;7976;52.526;13.326;2023-12-14T06:36:42;100650.94;;;4.64;100.00
15750;BME280;7976;52.526;13.326;2023-12-14T06:39:10;100652.69;;;4.63;100.00
15750;BME280;7976;52.526;13.326;2023-12-14T06:41:38;100656.22;;;4.58;100.00
15750;BME280;7976;52.526;13.326;2023-12-14T06:44:05;100654.53;;;4.55;100.00
15750;BME280;7976;52.526;13.326;2023-12-14T06:46:34;100659.75;;;4.52;100.00
15750;BME280;7976;52.526;13.326;2023-12-14T06:49:02;100666.69;;;4.52;100.00
15750;BME280;7976;52.526;13.326;2023-12-14T06:51:28;100675.28;;;4.52;100.00
15750;BME280;7976;52.526;13.326;2023-12-14T06:53:55;100684.75;;;4.56;100.00
15750;BME280;7976;52.526;13.326;2023-12-14T06:56:22;100684.75;;;4.56;100.00
15750;BME280;7976;52.526;13.326;2023-12-14T06:58:50;100691.66;;;4.56;100.00
15750;BME280;7976;52.526;13.326;2023-12-14T07:01:18;100695.94;;;4.58;100.00
15750;BME280;7976;52.526;13.326;2023-12-14T07:03:45;100699.38;;;4.60;100.00
15750;BME280;7976;52.526;13.326;2023-12-14T07:06:13;100700.19;;;4.62;100.00
15750;BME280;7976;52.526;13.326;2023-12-14T07:08:40;100711.38;;;4.66;100.00
15750;BME280;7976;52.526;13.326;2023-12-14T07:11:07;100717.38;;;4.69;100.00
15750;BME280;7976;52.526;13.326;2023-12-14T07:13:35;100719.97;;;4.69;100.00
15750;BME280;7976;52.526;13.326;2023-12-14T07:16:06;100719.13;;;4.67;100.00
15750;BME280;7976;52.526;13.326;2023-12-14T07:18:34;100720.09;;;4.60;100.00
15750;BME280;7976;52.526;13.326;2023-12-14T07:21:01;100726.97;;;4.63;100.00
15750;BME280;7976;52.526;13.326;2023-12-14T07:23:28;100738.16;;;4.65;100.00
15750;BME280;7976;52.526;13.326;2023-12-14T07:25:55;100750.25;;;4.64;100.00
15750;BME280;7976;52.526;13.326;2023-12-14T07:28:22;100751.13;;;4.65;100.00
15750;BME280;7976;52.526;13.326;2023-12-14T07:30:49;100756.31;;;4.65;100.00
15750;BME280;7976;52.526;13.326;2023-12-14T07:33:17;100757.19;;;4.62;100.00
15750;BME280;7976;52.526;13.326;2023-12-14T07:35:44;100770.16;;;4.62;100.00
15750;BME280;7976;52.526;13.326;2023-12-14T07:38:12;100772.72;;;4.65;100.00
15750;BME280;7976;52.526;13.326;2023-12-14T07:40:39;100777.84;;;4.68;100.00
15750;BME280;7976;52.526;13.326;2023-12-14T07:43:07;100781.25;;;4.73;100.00
15750;BME280;7976;52.526;13.326;2023-12-14T07:45:34;100780.34;;;4.76;100.00
15750;BME280;7976;52.526;13.326;2023-12-14T07:48:01;100783.78;;;4.76;100.00
15750;BME280;7976;52.526;13.326;2023-12-14T07:50:30;100784.69;;;4.75;100.00
15750;BME280;7976;52.526;13.326;2023-12-14T07:52:57;100787.25;;;4.74;100.00
15750;BME280;7976;52.526;13.326;2023-12-14T07:55:24;100791.53;;;4.78;100.00
15750;BME280;7976;52.526;13.326;2023-12-14T07:57:51;100791.47;;;4.82;100.00
15750;BME280;7976;52.526;13.326;2023-12-14T08:00:18;100797.53;;;4.83;100.00
15750;BME280;7976;52.526;13.326;2023-12-14T08:02:45;100800.13;;;4.81;100.00
15750;BME280;7976;52.526;13.326;2023-12-14T08:05:12;100799.25;;;4.82;100.00
15750;BME280;7976;52.526;13.326;2023-12-14T08:07:40;100809.63;;;4.82;100.00
15750;BME280;7976;52.526;13.326;2023-12-14T08:10:08;100812.19;;;4.85;100.00
15750;BME280;7976;52.526;13.326;2023-12-14T08:12:35;100822.47;;;4.91;100.00
15750;BME280;7976;52.526;13.326;2023-12-14T08:15:02;100819.00;;;4.92;100.00
15750;BME280;7976;52.526;13.326;2023-12-14T08:17:29;100825.91;;;4.93;100.00
15750;BME280;7976;52.526;13.326;2023-12-14T08:19:55;100822.47;;;4.91;100.00
15750;BME280;7976;52.526;13.326;2023-12-14T08:22:22;100829.44;;;4.86;100.00
15750;BME280;7976;52.526;13.326;2023-12-14T08:24:51;100825.16;;;4.82;100.00
15750;BME280;7976;52.526;13.326;2023-12-14T08:27:18;100832.94;;;4.85;100.00
15750;BME280;7976;52.526;13.326;2023-12-14T08:29:45;100838.06;;;4.88;100.00
15750;BME280;7976;52.526;13.326;2023-12-14T08:32:12;100846.69;;;4.87;100.00
15750;BME280;7976;52.526;13.326;2023-12-14T08:34:40;100847.63;;;4.85;100.00
15750;BME280;7976;52.526;13.326;2023-12-14T08:37:07;100855.38;;;4.86;100.00
15750;BME280;7976;52.526;13.326;2023-12-14T08:39:34;100857.06;;;4.87;100.00
15750;BME280;7976;52.526;13.326;2023-12-14T08:42:02;100858.81;;;4.88;100.00
15750;BME280;7976;52.526;13.326;2023-12-14T08:44:29;100864.84;;;4.87;100.00
15750;BME280;7976;52.526;13.326;2023-12-14T08:46:56;100873.47;;;4.89;100.00
15750;BME280;7976;52.526;13.326;2023-12-14T08:49:23;100881.25;;;4.89;100.00
15750;BME280;7976;52.526;13.326;2023-12-14T08:51:50;100883.84;;;4.89;100.00
15750;BME280;7976;52.526;13.326;2023-12-14T08:54:17;100876.09;;;4.88;100.00
15750;BME280;7976;52.526;13.326;2023-12-14T08:56:44;100875.19;;;4.89;100.00
15750;BME280;7976;52.526;13.326;2023-12-14T08:59:12;100880.38;;;4.90;100.00
15750;BME280;7976;52.526;13.326;2023-12-14T09:01:42;100889.88;;;4.91;100.00
15750;BME280;7976;52.526;13.326;2023-12-14T09:04:08;100898.53;;;4.89;100.00
15750;BME280;7976;52.526;13.326;2023-12-14T09:06:35;100901.13;;;4.89;100.00
15750;BME280;7976;52.526;13.326;2023-12-14T09:09:02;100914.13;;;4.84;100.00
15750;BME280;7976;52.526;13.326;2023-12-14T09:11:29;100913.28;;;4.84;100.00
15750;BME280;7976;52.526;13.326;2023-12-14T09:13:56;100916.72;;;4.84;100.00
15750;BME280;7976;52.526;13.326;2023-12-14T09:16:24;100922.75;;;4.86;100.00
15750;BME280;7976;52.526;13.326;2023-12-14T09:18:51;100927.94;;;4.86;100.00
15750;BME280;7976;52.526;13.326;2023-12-14T09:21:18;100939.19;;;4.87;100.00
15750;BME280;7976;52.526;13.326;2023-12-14T09:23:45;100939.16;;;4.88;100.00
15750;BME280;7976;52.526;13.326;2023-12-14T09:26:12;100940.81;;;4.94;100.00
15750;BME280;7976;52.526;13.326;2023-12-14T09:28:39;100943.41;;;4.92;100.00
15750;BME280;7976;52.526;13.326;2023-12-14T09:31:08;100947.78;;;4.90;100.00
15750;BME280;7976;52.526;13.326;2023-12-14T09:33:36;100952.13;;;4.88;100.00
15750;BME280;7976;52.526;13.326;2023-12-14T09:36:04;100952.09;;;4.90;100.00
15750;BME280;7976;52.526;13.326;2023-12-14T09:38:31;100959.84;;;4.91;100.00
15750;BME280;7976;52.526;13.326;2023-12-14T09:40:58;100959.84;;;4.93;100.00
15750;BME280;7976;52.526;13.326;2023-12-14T09:43:25;100964.16;;;4.92;100.00
15750;BME280;7976;52.526;13.326;2023-12-14T09:45:53;100960.72;;;4.92;100.00
15750;BME280;7976;52.526;13.326;2023-12-14T09:48:23;100972.00;;;4.86;100.00
15750;BME280;7976;52.526;13.326;2023-12-14T09:50:51;100972.00;;;4.86;100.00
15750;BME280;7976;52.526;13.326;2023-12-14T09:53:18;100966.75;;;4.92;100.00
15750;BME280;7976;52.526;13.326;2023-12-14T09:55:45;100977.94;;;4.97;100.00
15750;BME280;7976;52.526;13.326;2023-12-14T09:58:12;100980.50;;;5.00;100.00
15750;BME280;7976;52.526;13.326;2023-12-14T10:00:40;100973.56;;;5.01;100.00
15750;BME280;7976;52.526;13.326;2023-12-14T10:03:20;100969.28;;;4.98;100.00
15750;BME280;7976;52.526;13.326;2023-12-14T10:05:48;100972.81;;;4.91;100.00
15750;BME280;7976;52.526;13.326;2023-12-14T10:08:16;100985.81;;;4.90;100.00
15750;BME280;7976;52.526;13.326;2023-12-14T10:10:44;100991.00;;;4.90;100.00
15750;BME280;7976;52.526;13.326;2023-12-14T10:13:11;100991.00;;;4.90;100.00
15750;BME280;7976;52.526;13.326;2023-12-14T10:15:42;100982.28;;;4.94;100.00
15750;BME280;7976;52.526;13.326;2023-12-14T10:18:09;100988.28;;;4.97;100.00
15750;BME280;7976;52.526;13.326;2023-12-14T10:20:36;100993.47;;;4.97;100.00
15750;BME280;7976;52.526;13.326;2023-12-14T10:23:05;101000.41;;;4.98;100.00
15750;BME280;7976;52.526;13.326;2023-12-14T10:25:35;101006.44;;;4.99;99.93
15750;BME280;7976;52.526;13.326;2023-12-14T10:28:02;101001.22;;;5.03;99.75
15750;BME280;7976;52.526;13.326;2023-12-14T10:30:29;101006.38;;;5.05;99.84
15750;BME280;7976;52.526;13.326;2023-12-14T10:32:57;101008.09;;;5.04;99.83
15750;BME280;7976;52.526;13.326;2023-12-14T10:35:23;101012.44;;;5.05;99.74
15750;BME280;7976;52.526;13.326;2023-12-14T10:37:52;101009.00;;;5.03;98.95
15750;BME280;7976;52.526;13.326;2023-12-14T10:40:20;101022.78;;;5.04;98.80
15750;BME280;7976;52.526;13.326;2023-12-14T10:42:50;101021.06;;;5.04;99.06
15750;BME280;7976;52.526;13.326;2023-12-14T10:45:18;101033.97;;;5.09;98.83
15750;BME280;7976;52.526;13.326;2023-12-14T10:47:47;101022.75;;;5.10;98.73
15750;BME280;7976;52.526;13.326;2023-12-14T10:50:15;101018.44;;;5.10;98.38
15750;BME280;7976;52.526;13.326;2023-12-14T10:52:43;101035.75;;;5.07;98.45
15750;BME280;7976;52.526;13.326;2023-12-14T10:55:23;101037.44;;;5.09;98.23
15750;BME280;7976;52.526;13.326;2023-12-14T10:57:53;101037.44;;;5.09;98.21
15750;BME280;7976;52.526;13.326;2023-12-14T11:00:20;101048.66;;;5.11;98.12
15750;BME280;7976;52.526;13.326;2023-12-14T11:02:48;101044.31;;;5.15;98.07
15750;BME280;7976;52.526;13.326;2023-12-14T11:05:17;101042.59;;;5.16;98.30
15750;BME280;7976;52.526;13.326;2023-12-14T11:07:51;101046.03;;;5.14;97.84
15750;BME280;7976;52.526;13.326;2023-12-14T11:10:22;101045.19;;;5.16;97.83
15750;BME280;7976;52.526;13.326;2023-12-14T11:13:02;101046.91;;;5.13;97.79
15750;BME280;7976;52.526;13.326;2023-12-14T11:15:34;101046.91;;;5.13;97.49
15750;BME280;7976;52.526;13.326;2023-12-14T11:18:27;101040.84;;;5.14;97.36
15750;BME280;7976;52.526;13.326;2023-12-14T11:20:56;101052.09;;;5.13;97.03
15750;BME280;7976;52.526;13.326;2023-12-14T11:23:34;101050.38;;;5.14;96.88
15750;BME280;7976;52.526;13.326;2023-12-14T11:26:04;101058.97;;;5.18;97.08
15750;BME280;7976;52.526;13.326;2023-12-14T11:28:35;101051.19;;;5.16;96.66
15750;BME280;7976;52.526;13.326;2023-12-14T11:31:03;101050.31;;;5.19;97.02
15750;BME280;7976;52.526;13.326;2023-12-14T11:33:33;101058.97;;;5.19;96.62
15750;BME280;7976;52.526;13.326;2023-12-14T11:36:02;101071.09;;;5.17;96.25
15750;BME280;7976;52.526;13.326;2023-12-14T11:38:32;101072.81;;;5.17;96.27
15750;BME280;7976;52.526;13.326;2023-12-14T11:40:59;101079.72;;;5.16;96.12
15750;BME280;7976;52.526;13.326;2023-12-14T11:43:26;101083.16;;;5.18;95.78
15750;BME280;7976;52.526;13.326;2023-12-14T11:45:54;101084.03;;;5.20;95.81
15750;BME280;7976;52.526;13.326;2023-12-14T11:48:22;101084.00;;;5.22;95.80
15750;BME280;7976;52.526;13.326;2023-12-14T11:50:49;101085.72;;;5.21;95.59
15750;BME280;7976;52.526;13.326;2023-12-14T11:53:16;101100.44;;;5.22;95.27
15750;BME280;7976;52.526;13.326;2023-12-14T11:55:44;101105.59;;;5.24;95.10
15750;BME280;7976;52.526;13.326;2023-12-14T11:58:13;101109.06;;;5.26;95.12
15750;BME280;7976;52.526;13.326;2023-12-14T12:00:40;101106.47;;;5.24;95.00
15750;BME280;7976;52.526;13.326;2023-12-14T12:03:10;101101.25;;;5.27;94.91
15750;BME280;7976;52.526;13.326;2023-12-14T12:05:40;101111.59;;;5.30;95.21
15750;BME280;7976;52.526;13.326;2023-12-14T12:08:09;101115.03;;;5.32;95.01
15750;BME280;7976;52.526;13.326;2023-12-14T12:10:37;101117.66;;;5.31;94.79
15750;BME280;7976;52.526;13.326;2023-12-14T12:13:07;101121.97;;;5.29;94.60
15750;BME280;7976;52.526;13.326;2023-12-14T12:15:35;101120.25;;;5.28;94.31
15750;BME280;7976;52.526;13.326;2023-12-14T12:18:05;101121.06;;;5.33;94.17
15750;BME280;7976;52.526;13.326;2023-12-14T12:20:34;101121.06;;;5.33;94.03
15750;BME280;7976;52.526;13.326;2023-12-14T12:23:02;101126.22;;;5.37;94.14
15750;BME280;7976;52.526;13.326;2023-12-14T12:25:29;101126.25;;;5.36;94.16
15750;BME280;7976;52.526;13.326;2023-12-14T12:27:57;101132.31;;;5.32;94.16
15750;BME280;7976;52.526;13.326;2023-12-14T12:30:24;101129.78;;;5.29;94.79
15750;BME280;7976;52.526;13.326;2023-12-14T12:32:52;101136.72;;;5.25;94.86
15750;BME280;7976;52.526;13.326;2023-12-14T12:35:19;101141.06;;;5.23;95.34
15750;BME280;7976;52.526;13.326;2023-12-14T12:37:47;101139.34;;;5.21;95.43
15750;BME280;7976;52.526;13.326;2023-12-14T12:40:19;101144.56;;;5.19;95.17
15750;BME280;7976;52.526;13.326;2023-12-14T12:42:46;101141.13;;;5.17;95.80
15750;BME280;7976;52.526;13.326;2023-12-14T12:45:15;101145.44;;;5.17;96.11
15750;BME280;7976;52.526;13.326;2023-12-14T12:47:43;101148.91;;;5.16;96.19
15750;BME280;7976;52.526;13.326;2023-12-14T12:50:10;101158.44;;;5.12;96.32
15750;BME280;7976;52.526;13.326;2023-12-14T12:52:37;101157.63;;;5.08;96.26
15750;BME280;7976;52.526;13.326;2023-12-14T12:55:07;101164.53;;;5.06;96.47